createdAt,value
2023-05-25T00:01:21.414Z,8.00
2023-05-25T00:03:49.707Z,9.10
2023-05-25T00:06:18.360Z,12.00
2023-05-25T00:08:46.633Z,8.70
2023-05-25T00:11:14.174Z,8.90
2023-05-25T00:13:41.043Z,11.00
2023-05-25T00:16:07.918Z,9.20
2023-05-25T00:18:38.048Z,9.70
2023-05-25T00:21:06.862Z,9.00
2023-05-25T00:23:33.642Z,9.00
2023-05-25T00:26:02.269Z,9.00
2023-05-25T00:28:29.846Z,8.50
2023-05-25T00:30:57.224Z,8.60
2023-05-25T00:33:24.993Z,9.90
2023-05-25T00:35:54.180Z,8.80
2023-05-25T00:38:21.842Z,8.00
2023-05-25T00:40:49.078Z,8.30
2023-05-25T00:43:16.757Z,6.60
2023-05-25T00:45:43.847Z,6.30
2023-05-25T00:48:10.846Z,7.90
2023-05-25T00:50:40.786Z,7.70
2023-05-25T00:53:08.475Z,7.70
2023-05-25T00:55:42.042Z,9.20
2023-05-25T00:58:08.992Z,10.30
2023-05-25T01:00:36.740Z,8.10
2023-05-25T01:03:09.732Z,8.90
2023-05-25T01:05:38.891Z,8.00
2023-05-25T01:08:08.206Z,8.00
2023-05-25T01:10:35.562Z,9.70
2023-05-25T01:13:02.711Z,11.30
2023-05-25T01:15:30.918Z,8.40
2023-05-25T01:17:59.713Z,8.00
2023-05-25T01:20:29.920Z,7.40
2023-05-25T01:23:03.382Z,8.40
2023-05-25T01:25:43.237Z,8.40
2023-05-25T01:28:14.354Z,8.20
2023-05-25T01:30:42.439Z,6.00
2023-05-25T01:33:09.552Z,8.90
2023-05-25T01:35:36.848Z,7.90
2023-05-25T01:38:03.975Z,6.80
2023-05-25T01:40:30.942Z,6.90
2023-05-25T01:42:58.266Z,8.90
2023-05-25T01:45:26.910Z,8.20
2023-05-25T01:48:13.149Z,8.60
2023-05-25T01:50:54.505Z,7.20
2023-05-25T01:53:29.300Z,7.90
2023-05-25T01:55:59.683Z,7.90
2023-05-25T01:58:29.158Z,8.20
2023-05-25T02:00:56.919Z,10.60
2023-05-25T02:03:23.858Z,9.30
2023-05-25T02:05:51.006Z,8.30
2023-05-25T02:08:18.161Z,6.70
2023-05-25T02:10:45.127Z,6.30
2023-05-25T02:13:12.395Z,7.20
2023-05-25T02:15:39.588Z,7.20
2023-05-25T02:18:06.460Z,9.50
2023-05-25T02:20:33.560Z,7.40
2023-05-25T02:23:01.010Z,8.10
2023-05-25T02:25:27.967Z,8.00
2023-05-25T02:27:55.078Z,8.90
2023-05-25T02:30:22.460Z,8.70
2023-05-25T02:32:50.988Z,9.10
2023-05-25T02:35:18.163Z,8.40
2023-05-25T02:37:45.114Z,11.60
2023-05-25T02:40:14.666Z,10.60
2023-05-25T02:42:41.582Z,10.80
2023-05-25T02:45:10.962Z,8.30
2023-05-25T02:47:38.113Z,5.50
2023-05-25T02:50:05.529Z,8.50
2023-05-25T02:52:34.357Z,9.00
2023-05-25T02:55:01.327Z,9.90
2023-05-25T02:57:32.468Z,8.90
2023-05-25T02:59:59.808Z,9.20
2023-05-25T03:02:29.139Z,9.90
2023-05-25T03:04:56.282Z,9.10
2023-05-25T03:07:26.728Z,9.50
2023-05-25T03:09:54.558Z,7.40
2023-05-25T03:12:21.889Z,7.10
2023-05-25T03:14:49.964Z,9.20
2023-05-25T03:17:17.452Z,7.70
2023-05-25T03:19:44.546Z,8.80
2023-05-25T03:22:11.850Z,9.90
2023-05-25T03:24:41.871Z,8.80
2023-05-25T03:27:09.508Z,11.70
2023-05-25T03:29:36.873Z,10.60
2023-05-25T03:32:04.134Z,9.70
2023-05-25T03:34:34.947Z,9.10
2023-05-25T03:37:02.710Z,10.70
2023-05-25T03:39:30.017Z,8.10
2023-05-25T03:41:58.234Z,9.50
2023-05-25T03:44:25.993Z,9.60
2023-05-25T03:46:53.693Z,8.20
2023-05-25T03:49:20.618Z,9.10
2023-05-25T03:51:47.660Z,7.50
2023-05-25T03:54:14.804Z,8.50
2023-05-25T03:56:41.749Z,8.60
2023-05-25T03:59:08.987Z,10.80
2023-05-25T04:01:38.391Z,11.40
2023-05-25T04:04:06.242Z,11.10
2023-05-25T04:06:34.243Z,13.60
2023-05-25T04:09:01.691Z,11.20
2023-05-25T04:11:29.443Z,8.70
2023-05-25T04:13:56.604Z,7.60
2023-05-25T04:16:26.741Z,9.10
2023-05-25T04:18:54.798Z,8.40
2023-05-25T04:21:22.544Z,9.20
2023-05-25T04:23:50.413Z,7.30
2023-05-25T04:26:17.473Z,8.10
2023-05-25T04:28:46.463Z,7.60
2023-05-25T04:31:20.759Z,7.90
2023-05-25T04:34:02.975Z,5.10
2023-05-25T04:36:33.326Z,6.00
2023-05-25T04:39:04.839Z,6.60
2023-05-25T04:41:36.021Z,6.70
2023-05-25T04:44:09.697Z,6.30
2023-05-25T04:46:44.737Z,6.00
2023-05-25T04:49:19.363Z,7.90
2023-05-25T04:51:46.468Z,6.80
2023-05-25T04:54:13.721Z,9.00
2023-05-25T04:56:41.025Z,8.60
2023-05-25T04:59:08.063Z,7.90
2023-05-25T05:01:40.864Z,8.70
2023-05-25T05:04:09.312Z,7.40
2023-05-25T05:06:36.764Z,7.20
2023-05-25T05:09:04.712Z,6.40
2023-05-25T05:11:31.610Z,5.80
2023-05-25T05:13:59.771Z,5.00
2023-05-25T05:16:33.782Z,7.10
2023-05-25T05:19:02.075Z,6.10
2023-05-25T05:21:29.784Z,7.20
2023-05-25T05:23:57.024Z,6.20
2023-05-25T05:26:23.937Z,5.40
2023-05-25T05:28:52.729Z,7.50
2023-05-25T05:31:21.746Z,8.10
2023-05-25T05:33:49.045Z,5.40
2023-05-25T05:36:16.645Z,7.90
2023-05-25T05:38:47.495Z,6.40
2023-05-25T05:41:14.578Z,6.70
2023-05-25T05:43:46.853Z,6.80
2023-05-25T05:46:14.186Z,5.50
2023-05-25T05:48:41.973Z,5.20
2023-05-25T05:51:11.629Z,5.20
2023-05-25T05:53:38.830Z,8.60
2023-05-25T05:56:07.226Z,6.50
2023-05-25T05:58:34.477Z,6.20
2023-05-25T06:01:03.631Z,8.60
2023-05-25T06:03:31.152Z,5.30
2023-05-25T06:05:58.361Z,6.30
2023-05-25T06:08:25.538Z,5.70
2023-05-25T06:10:52.555Z,6.10
2023-05-25T06:13:20.844Z,6.40
2023-05-25T06:15:48.152Z,6.90
2023-05-25T06:18:18.707Z,5.50
2023-05-25T06:20:46.568Z,5.10
2023-05-25T06:23:14.339Z,6.30
2023-05-25T06:25:41.610Z,7.20
2023-05-25T06:28:08.637Z,5.60
2023-05-25T06:30:35.505Z,5.70
2023-05-25T06:33:03.244Z,6.20
2023-05-25T06:35:30.398Z,4.80
2023-05-25T06:37:57.837Z,10.30
2023-05-25T06:40:24.845Z,4.30
2023-05-25T06:42:51.604Z,4.50
2023-05-25T06:45:37.104Z,5.80
2023-05-25T06:50:32.956Z,5.10
2023-05-25T06:53:00.517Z,4.90
2023-05-25T06:55:27.415Z,4.10
2023-05-25T06:57:54.152Z,4.10
2023-05-25T07:00:21.627Z,5.90
2023-05-25T07:02:48.656Z,3.90
2023-05-25T07:05:15.611Z,5.20
2023-05-25T07:07:42.527Z,4.00
2023-05-25T07:10:09.606Z,4.80
2023-05-25T07:12:36.564Z,5.60
2023-05-25T07:15:03.677Z,4.40
2023-05-25T07:17:31.592Z,5.90
2023-05-25T07:19:58.503Z,4.50
2023-05-25T07:22:25.614Z,3.90
2023-05-25T07:24:52.380Z,6.80
2023-05-25T07:27:19.792Z,5.90
2023-05-25T07:29:47.129Z,7.20
2023-05-25T07:32:13.826Z,6.60
2023-05-25T07:34:41.404Z,7.60
2023-05-25T07:37:08.402Z,8.30
2023-05-25T07:39:35.487Z,9.50
2023-05-25T07:42:02.668Z,4.30
2023-05-25T07:44:30.198Z,6.50
2023-05-25T07:46:57.222Z,7.20
2023-05-25T07:49:24.037Z,5.30
2023-05-25T07:51:51.222Z,4.80
2023-05-25T07:54:18.110Z,3.70
2023-05-25T07:56:44.974Z,4.60
2023-05-25T07:59:11.869Z,6.00
2023-05-25T08:01:39.245Z,5.40
2023-05-25T08:04:06.194Z,3.80
2023-05-25T08:06:34.424Z,4.40
2023-05-25T08:11:31.239Z,4.80
2023-05-25T08:16:25.490Z,4.90
2023-05-25T08:18:52.761Z,6.50
2023-05-25T08:21:20.493Z,3.70
2023-05-25T08:23:47.260Z,9.80
2023-05-25T08:26:34.163Z,3.80
2023-05-25T08:29:02.498Z,3.60
2023-05-25T08:31:29.412Z,3.30
2023-05-25T08:33:56.157Z,4.50
2023-05-25T08:36:23.164Z,3.40
2023-05-25T08:38:49.912Z,4.50
2023-05-25T08:41:16.772Z,6.20
2023-05-25T08:43:43.581Z,2.90
2023-05-25T08:46:10.427Z,3.30
2023-05-25T08:48:41.671Z,3.70
2023-05-25T08:51:12.371Z,2.90
2023-05-25T08:53:40.158Z,5.70
2023-05-25T08:56:24.561Z,4.00
2023-05-25T08:59:01.278Z,3.50
2023-05-25T09:01:29.072Z,3.80
2023-05-25T09:03:56.877Z,6.30
2023-05-25T09:06:24.328Z,5.20
2023-05-25T09:11:40.391Z,5.90
2023-05-25T09:14:09.249Z,4.50
2023-05-25T09:16:37.700Z,4.50
2023-05-25T09:19:04.868Z,3.90
2023-05-25T09:21:31.873Z,4.90
2023-05-25T09:24:00.394Z,4.50
2023-05-25T09:26:27.736Z,4.10
2023-05-25T09:28:55.343Z,6.10
2023-05-25T09:31:23.769Z,5.40
